Map

Track Data

SID SEASON NUMBER BASIN SUBBASIN NAME ISO_TIME NATURE LAT LON WMO_WIND WMO_PRES WMO_AGENCY TRACK_TYPE DIST2LAND LANDFALL IFLAG USA_AGENCY USA_ATCF_ID USA_LAT USA_LON USA_RECORD USA_STATUS USA_WIND USA_PRES USA_SSHS USA_R34_NE USA_R34_SE USA_R34_SW USA_R34_NW USA_R50_NE USA_R50_SE USA_R50_SW USA_R50_NW USA_R64_NE USA_R64_SE USA_R64_SW USA_R64_NW USA_POCI USA_ROCI USA_RMW USA_EYE TOKYO_LAT TOKYO_LON TOKYO_GRADE TOKYO_WIND TOKYO_PRES TOKYO_R50_DIR TOKYO_R50_LONG TOKYO_R50_SHORT TOKYO_R30_DIR TOKYO_R30_LONG TOKYO_R30_SHORT TOKYO_LAND CMA_LAT CMA_LON CMA_CAT CMA_WIND CMA_PRES HKO_LAT HKO_LON HKO_CAT HKO_WIND HKO_PRES NEWDELHI_LAT NEWDELHI_LON NEWDELHI_GRADE NEWDELHI_WIND NEWDELHI_PRES NEWDELHI_CI NEWDELHI_DP NEWDELHI_POCI REUNION_LAT REUNION_LON REUNION_TYPE REUNION_WIND REUNION_PRES REUNION_TNUM REUNION_CI REUNION_RMW REUNION_R34_NE REUNION_R34_SE REUNION_R34_SW REUNION_R34_NW REUNION_R50_NE REUNION_R50_SE REUNION_R50_SW REUNION_R50_NW REUNION_R64_NE REUNION_R64_SE REUNION_R64_SW REUNION_R64_NW BOM_LAT BOM_LON BOM_TYPE BOM_WIND BOM_PRES BOM_TNUM BOM_CI BOM_RMW BOM_R34_NE BOM_R34_SE BOM_R34_SW BOM_R34_NW BOM_R50_NE BOM_R50_SE BOM_R50_SW BOM_R50_NW BOM_R64_NE BOM_R64_SE BOM_R64_SW BOM_R64_NW BOM_ROCI BOM_POCI BOM_EYE BOM_POS_METHOD BOM_PRES_METHOD NADI_LAT NADI_LON NADI_CAT NADI_WIND NADI_PRES WELLINGTON_LAT WELLINGTON_LON WELLINGTON_WIND WELLINGTON_PRES DS824_LAT DS824_LON DS824_STAGE DS824_WIND DS824_PRES TD9636_LAT TD9636_LON TD9636_STAGE TD9636_WIND TD9636_PRES TD9635_LAT TD9635_LON TD9635_WIND TD9635_PRES TD9635_ROCI NEUMANN_LAT NEUMANN_LON NEUMANN_CLASS NEUMANN_WIND NEUMANN_PRES MLC_LAT MLC_LON MLC_CLASS MLC_WIND MLC_PRES USA_GUST BOM_GUST BOM_GUST_PER REUNION_GUST REUNION_GUST_PER USA_SEAHGT USA_SEARAD_NE USA_SEARAD_SE USA_SEARAD_SW USA_SEARAD_NW STORM_SPEED STORM_DIR
1923042S14056 1923 10 SI MM NOT_NAMED 1923-02-11 00:00:00 TS -14.0000 56.2000 main 628 602 _________O____ -1 -14.0000 56.2000 TC 35 6 229
1923042S14056 1923 10 SI MM NOT_NAMED 1923-02-11 03:00:00 TS -14.2100 55.9526 main 602 566 _________P____ -1 -14.2100 55.9526 TC 35 6 230
1923042S14056 1923 10 SI MM NOT_NAMED 1923-02-11 06:00:00 TS -14.4000 55.7000 main 566 543 _________O____ -1 -14.4000 55.7000 TC 35 6 235
1923042S14056 1923 10 SI MM NOT_NAMED 1923-02-11 09:00:00 TS -14.5575 55.4425 main 531 508 _________P____ -1 -14.5575 55.4425 TC 35 6 238
1923042S14056 1923 10 SI MM NOT_NAMED 1923-02-11 12:00:00 TS -14.7000 55.2000 main 508 485 _________O____ -1 -14.7000 55.2000 TC 35 5 236
1923042S14056 1923 10 SI MM NOT_NAMED 1923-02-11 15:00:00 TS -14.8499 54.9999 main 485 462 _________P____ -1 -14.8499 54.9999 TC 35 5 232
1923042S14056 1923 10 SI MM NOT_NAMED 1923-02-11 18:00:00 TS -15.0000 54.8000 main 462 440 _________O____ -1 -15.0000 54.8000 TC 35 5 239
1923042S14056 1923 10 SI MM NOT_NAMED 1923-02-11 21:00:00 TS -15.0823 54.6019 main 440 407 _________P____ -1 -15.0823 54.6019 TC 35 6 238
1923042S14056 1923 10 SI MM NOT_NAMED 1923-02-12 00:00:00 TS -15.3000 54.3000 main 407 355 _________O____ -1 -15.3000 54.3000 TC 35 11 229
1923042S14056 1923 10 SI MM NOT_NAMED 1923-02-12 03:00:00 TS -15.8105 53.7358 main 345 309 _________P____ -1 -15.8105 53.7358 TC 35 16 221
1923042S14056 1923 10 SI MM NOT_NAMED 1923-02-12 06:00:00 TS -16.5000 53.2000 main 313 308 _________O____ -1 -16.5000 53.2000 TC 35 17 208
1923042S14056 1923 10 SI MM NOT_NAMED 1923-02-12 09:00:00 TS -17.2647 52.9226 main 322 322 _________P____ -1 -17.2647 52.9226 TC 35 15 191
1923042S14056 1923 10 SI MM NOT_NAMED 1923-02-12 12:00:00 TS -18.0000 52.9000 main 355 355 _________O____ -1 -18.0000 52.9000 TC 35 13 172
1923042S14056 1923 10 SI MM NOT_NAMED 1923-02-12 15:00:00 TS -18.5525 53.1171 main 353 292 _________P____ -1 -18.5525 53.1171 TC 35 12 150
1923042S14056 1923 10 SI MM NOT_NAMED 1923-02-12 18:00:00 TS -19.0000 53.5000 main 292 231 _________O____ -1 -19.0000 53.5000 TC 35 12 140
1923042S14056 1923 10 SI MM NOT_NAMED 1923-02-12 21:00:00 TS -19.4376 53.9074 main 231 169 _________P____ -1 -19.4376 53.9074 TC 35 11 137
1923042S14056 1923 10 SI MM NOT_NAMED 1923-02-13 00:00:00 TS -19.8000 54.3000 main 169 124 _________O____ -1 -19.8000 54.3000 TC 35 9 136
1923042S14056 1923 10 SI MM NOT_NAMED 1923-02-13 03:00:00 TS -20.0798 54.5728 main 124 93 _________P____ -1 -20.0798 54.5728 TC 35 7 137
1923042S14056 1923 10 SI MM NOT_NAMED 1923-02-13 06:00:00 TS -20.3000 54.8000 main 93 64 _________O____ -1 -20.3000 54.8000 TC 35 6 133
1923042S14056 1923 10 SI MM NOT_NAMED 1923-02-13 09:00:00 TS -20.5075 55.0576 main 59 33 _________P____ -1 -20.5075 55.0576 TC 35 6 131
1923042S14056 1923 10 SI MM NOT_NAMED 1923-02-13 12:00:00 TS -20.7000 55.3000 main 33 11 _________O____ -1 -20.7000 55.3000 TC 35 6 134
1923042S14056 1923 10 SI MM NOT_NAMED 1923-02-13 15:00:00 TS -20.9074 55.5001 main 11 0 _________P____ -1 -20.9074 55.5001 TC 35 5 137
1923042S14056 1923 10 SI MM NOT_NAMED 1923-02-13 18:00:00 TS -21.1000 55.7000 main 0 0 _________O____ -1 -21.1000 55.7000 TC 35 5 129
1923042S14056 1923 10 SI MM NOT_NAMED 1923-02-13 21:00:00 TS -21.2500 55.9501 main 20 20 _________P____ -1 -21.2500 55.9501 TC 35 6 123
1923042S14056 1923 10 SI MM NOT_NAMED 1923-02-14 00:00:00 TS -21.4000 56.2000 main 42 42 _________O____ -1 -21.4000 56.2000 TC 35 5 129
1923042S14056 1923 10 SI MM NOT_NAMED 1923-02-14 03:00:00 TS -21.5924 56.4075 main 70 70 _________P____ -1 -21.5924 56.4075 TC 35 5 137
1923042S14056 1923 10 SI MM NOT_NAMED 1923-02-14 06:00:00 TS -21.8000 56.6000 main 99 99 _________O____ -1 -21.8000 56.6000 TC 35 5 141
1923042S14056 1923 10 SI MM NOT_NAMED 1923-02-14 09:00:00 TS -21.9998 56.7627 main 129 129 _________P____ -1 -21.9998 56.7627 TC 35 5 137
1923042S14056 1923 10 SI MM NOT_NAMED 1923-02-14 12:00:00 TS -22.2000 57.0000 main 159 159 _________O____ -1 -22.2000 57.0000 TC 35 7 125
1923042S14056 1923 10 SI MM NOT_NAMED 1923-02-14 15:00:00 TS -22.4151 57.4123 main 205 205 _________P____ -1 -22.4151 57.4123 TC 35 9 116
1923042S14056 1923 10 SI MM NOT_NAMED 1923-02-14 18:00:00 TS -22.6000 57.9000 main 235 235 _________O____ -1 -22.6000 57.9000 TC 35 9 109
1923042S14056 1923 10 SI MM NOT_NAMED 1923-02-14 21:00:00 TS -22.7201 58.3626 main 256 256 _________P____ -1 -22.7201 58.3626 TC 35 9 104
1923042S14056 1923 10 SI MM NOT_NAMED 1923-02-15 00:00:00 TS -22.8000 58.8000 main 281 _________O____ -1 -22.8000 58.8000 TC 35 8 101

About IBTrACS Database

This database is a web-friendly format of International Best Track Archive for Climate Stewardship (IBTrACS), a global best track data archive curated by NOAA dating back to 1842.

Updated: 2021-11-26